sensor_id;sensor_type;location;lat;lon;timestamp;pressure;altitude;pressure_sealevel;temperature;humidity
13695;BME280;6919;52.344;14.518;2023-01-26T00:00:08;101532.31;;;1.31;100.00
13695;BME280;6919;52.344;14.518;2023-01-26T00:02:36;101533.88;;;1.17;100.00
13695;BME280;6919;52.344;14.518;2023-01-26T00:05:07;101528.03;;;1.10;100.00
13695;BME280;6919;52.344;14.518;2023-01-26T00:07:35;101536.94;;;1.08;100.00
13695;BME280;6919;52.344;14.518;2023-01-26T00:10:04;101527.09;;;1.30;100.00
13695;BME280;6919;52.344;14.518;2023-01-26T00:12:32;101527.09;;;1.30;100.00
13695;BME280;6919;52.344;14.518;2023-01-26T00:15:00;101524.88;;;1.02;100.00
13695;BME280;6919;52.344;14.518;2023-01-26T00:17:29;101510.84;;;1.02;100.00
13695;BME280;6919;52.344;14.518;2023-01-26T00:19:57;101516.13;;;1.02;100.00
13695;BME280;6919;52.344;14.518;2023-01-26T00:22:27;101504.41;;;1.07;100.00
13695;BME280;6919;52.344;14.518;2023-01-26T00:24:55;101503.53;;;1.07;100.00
13695;BME280;6919;52.344;14.518;2023-01-26T00:27:23;101501.97;;;1.03;100.00
13695;BME280;6919;52.344;14.518;2023-01-26T00:29:52;101497.41;;;1.06;100.00
13695;BME280;6919;52.344;14.518;2023-01-26T00:32:20;101492.28;;;1.03;100.00
13695;BME280;6919;52.344;14.518;2023-01-26T00:34:48;101494.06;;;1.03;100.00
13695;BME280;6919;52.344;14.518;2023-01-26T00:37:17;101488.78;;;1.03;100.00
13695;BME280;6919;52.344;14.518;2023-01-26T00:39:47;101488.75;;;1.21;100.00
13695;BME280;6919;52.344;14.518;2023-01-26T00:42:15;101493.91;;;1.06;100.00
13695;BME280;6919;52.344;14.518;2023-01-26T00:44:43;101491.69;;;1.15;100.00
13695;BME280;6919;52.344;14.518;2023-01-26T00:47:12;101488.19;;;1.50;100.00
13695;BME280;6919;52.344;14.518;2023-01-26T00:49:41;101481.50;;;1.43;100.00
13695;BME280;6919;52.344;14.518;2023-01-26T00:52:10;101486.00;;;1.06;100.00
13695;BME280;6919;52.344;14.518;2023-01-26T00:54:38;101479.44;;;0.96;100.00
13695;BME280;6919;52.344;14.518;2023-01-26T00:57:08;101488.56;;;0.89;100.00
13695;BME280;6919;52.344;14.518;2023-01-26T00:59:36;101492.13;;;0.88;100.00
13695;BME280;6919;52.344;14.518;2023-01-26T01:02:05;101497.53;;;1.22;100.00
13695;BME280;6919;52.344;14.518;2023-01-26T01:04:33;101485.31;;;1.19;100.00
13695;BME280;6919;52.344;14.518;2023-01-26T01:07:01;101492.03;;;1.08;100.00
13695;BME280;6919;52.344;14.518;2023-01-26T01:09:30;101498.91;;;1.12;100.00
13695;BME280;6919;52.344;14.518;2023-01-26T01:11:58;101502.13;;;1.00;100.00
13695;BME280;6919;52.344;14.518;2023-01-26T01:14:27;101500.75;;;1.10;100.00
13695;BME280;6919;52.344;14.518;2023-01-26T01:16:56;101485.72;;;1.29;100.00
13695;BME280;6919;52.344;14.518;2023-01-26T01:19:24;101492.91;;;1.08;100.00
13695;BME280;6919;52.344;14.518;2023-01-26T01:21:53;101484.44;;;1.02;100.00
13695;BME280;6919;52.344;14.518;2023-01-26T01:24:21;101486.56;;;0.94;100.00
13695;BME280;6919;52.344;14.518;2023-01-26T01:26:49;101480.28;;;0.96;100.00
13695;BME280;6919;52.344;14.518;2023-01-26T01:29:18;101485.19;;;1.04;100.00
13695;BME280;6919;52.344;14.518;2023-01-26T01:31:47;101480.56;;;1.09;100.00
13695;BME280;6919;52.344;14.518;2023-01-26T01:34:16;101470.97;;;1.25;100.00
13695;BME280;6919;52.344;14.518;2023-01-26T01:36:44;101478.13;;;1.04;100.00
13695;BME280;6919;52.344;14.518;2023-01-26T01:39:12;101468.94;;;0.94;100.00
13695;BME280;6919;52.344;14.518;2023-01-26T01:41:40;101461.56;;;1.01;100.00
13695;BME280;6919;52.344;14.518;2023-01-26T01:44:14;101457.56;;;1.11;100.00
13695;BME280;6919;52.344;14.518;2023-01-26T01:46:52;101456.28;;;1.01;100.00
13695;BME280;6919;52.344;14.518;2023-01-26T01:49:27;101443.25;;;0.98;100.00
13695;BME280;6919;52.344;14.518;2023-01-26T01:52:04;101452.59;;;1.05;100.00
13695;BME280;6919;52.344;14.518;2023-01-26T01:54:38;101440.63;;;0.98;100.00
13695;BME280;6919;52.344;14.518;2023-01-26T01:57:13;101442.03;;;1.05;100.00
13695;BME280;6919;52.344;14.518;2023-01-26T01:59:50;101433.94;;;1.08;100.00
13695;BME280;6919;52.344;14.518;2023-01-26T02:02:22;101438.31;;;1.09;100.00
13695;BME280;6919;52.344;14.518;2023-01-26T02:04:50;101441.84;;;1.08;100.00
13695;BME280;6919;52.344;14.518;2023-01-26T02:07:19;101436.75;;;1.05;100.00
13695;BME280;6919;52.344;14.518;2023-01-26T02:09:48;101437.44;;;1.08;100.00
13695;BME280;6919;52.344;14.518;2023-01-26T02:12:35;101429.44;;;1.10;100.00
13695;BME280;6919;52.344;14.518;2023-01-26T02:15:04;101426.19;;;1.05;100.00
13695;BME280;6919;52.344;14.518;2023-01-26T02:17:35;101424.31;;;1.07;100.00
13695;BME280;6919;52.344;14.518;2023-01-26T02:20:11;101422.41;;;1.10;100.00
13695;BME280;6919;52.344;14.518;2023-01-26T02:22:52;101414.63;;;1.07;100.00
13695;BME280;6919;52.344;14.518;2023-01-26T02:25:35;101412.75;;;1.09;100.00
13695;BME280;6919;52.344;14.518;2023-01-26T02:28:06;101415.63;;;1.05;100.00
13695;BME280;6919;52.344;14.518;2023-01-26T02:30:34;101409.41;;;1.06;100.00
13695;BME280;6919;52.344;14.518;2023-01-26T02:33:03;101402.69;;;1.17;100.00
13695;BME280;6919;52.344;14.518;2023-01-26T02:35:31;101399.47;;;1.11;100.00
13695;BME280;6919;52.344;14.518;2023-01-26T02:37:59;101405.88;;;1.24;100.00
13695;BME280;6919;52.344;14.518;2023-01-26T02:40:36;101399.47;;;1.11;100.00
13695;BME280;6919;52.344;14.518;2023-01-26T02:43:09;101397.63;;;1.13;100.00
13695;BME280;6919;52.344;14.518;2023-01-26T02:45:39;101398.91;;;1.04;100.00
13695;BME280;6919;52.344;14.518;2023-01-26T02:48:07;101402.78;;;0.97;100.00
13695;BME280;6919;52.344;14.518;2023-01-26T02:50:36;101396.56;;;0.98;100.00
13695;BME280;6919;52.344;14.518;2023-01-26T02:53:03;101388.16;;;1.09;100.00
13695;BME280;6919;52.344;14.518;2023-01-26T02:55:31;101393.75;;;0.84;100.00
13695;BME280;6919;52.344;14.518;2023-01-26T02:58:02;101397.38;;;0.82;100.00
13695;BME280;6919;52.344;14.518;2023-01-26T03:00:35;101405.94;;;0.87;100.00
13695;BME280;6919;52.344;14.518;2023-01-26T03:03:11;101395.91;;;0.76;100.00
13695;BME280;6919;52.344;14.518;2023-01-26T03:05:41;101398.69;;;0.73;100.00
13695;BME280;6919;52.344;14.518;2023-01-26T03:08:09;101396.13;;;0.72;100.00
13695;BME280;6919;52.344;14.518;2023-01-26T03:10:38;101390.81;;;0.90;100.00
13695;BME280;6919;52.344;14.518;2023-01-26T03:13:06;101389.13;;;0.89;100.00
13695;BME280;6919;52.344;14.518;2023-01-26T03:15:36;101390.13;;;1.04;100.00
13695;BME280;6919;52.344;14.518;2023-01-26T03:18:21;101378.19;;;1.14;100.00
13695;BME280;6919;52.344;14.518;2023-01-26T03:21:12;101385.34;;;1.12;100.00
13695;BME280;6919;52.344;14.518;2023-01-26T03:23:59;101385.34;;;1.12;100.00
13695;BME280;6919;52.344;14.518;2023-01-26T03:26:45;101376.78;;;1.07;100.00
13695;BME280;6919;52.344;14.518;2023-01-26T03:29:32;101381.31;;;1.05;100.00
13695;BME280;6919;52.344;14.518;2023-01-26T03:32:02;101375.47;;;1.15;100.00
13695;BME280;6919;52.344;14.518;2023-01-26T03:34:30;101370.75;;;1.05;100.00
13695;BME280;6919;52.344;14.518;2023-01-26T03:36:59;101366.38;;;1.04;100.00
13695;BME280;6919;52.344;14.518;2023-01-26T03:39:27;101371.31;;;1.28;100.00
13695;BME280;6919;52.344;14.518;2023-01-26T03:42:12;101369.50;;;1.12;100.00
13695;BME280;6919;52.344;14.518;2023-01-26T03:44:58;101354.97;;;1.03;100.00
13695;BME280;6919;52.344;14.518;2023-01-26T03:47:45;101367.09;;;1.24;100.00
13695;BME280;6919;52.344;14.518;2023-01-26T03:50:31;101357.06;;;1.14;100.00
13695;BME280;6919;52.344;14.518;2023-01-26T03:53:20;101359.47;;;1.01;100.00
13695;BME280;6919;52.344;14.518;2023-01-26T03:56:08;101357.44;;;0.89;100.00
13695;BME280;6919;52.344;14.518;2023-01-26T03:58:50;101365.25;;;0.74;100.00
13695;BME280;6919;52.344;14.518;2023-01-26T04:01:20;101356.09;;;0.81;100.00
13695;BME280;6919;52.344;14.518;2023-01-26T04:03:56;101356.66;;;1.04;100.00
13695;BME280;6919;52.344;14.518;2023-01-26T04:06:43;101357.09;;;0.78;100.00
13695;BME280;6919;52.344;14.518;2023-01-26T04:09:31;101363.69;;;0.87;100.00
13695;BME280;6919;52.344;14.518;2023-01-26T04:12:00;101361.16;;;0.85;100.00
13695;BME280;6919;52.344;14.518;2023-01-26T04:14:28;101349.44;;;0.91;100.00
13695;BME280;6919;52.344;14.518;2023-01-26T04:17:17;101356.44;;;0.73;100.00
13695;BME280;6919;52.344;14.518;2023-01-26T04:20:06;101343.72;;;0.64;100.00
13695;BME280;6919;52.344;14.518;2023-01-26T04:22:52;101339.41;;;0.45;100.00
13695;BME280;6919;52.344;14.518;2023-01-26T04:25:21;101345.94;;;0.36;100.00
13695;BME280;6919;52.344;14.518;2023-01-26T04:27:49;101343.13;;;0.58;100.00
13695;BME280;6919;52.344;14.518;2023-01-26T04:30:18;101337.03;;;0.57;100.00
13695;BME280;6919;52.344;14.518;2023-01-26T04:32:47;101331.06;;;0.71;100.00
13695;BME280;6919;52.344;14.518;2023-01-26T04:35:16;101339.94;;;0.70;100.00
13695;BME280;6919;52.344;14.518;2023-01-26T04:37:44;101339.81;;;0.36;100.00
13695;BME280;6919;52.344;14.518;2023-01-26T04:40:14;101344.59;;;0.28;100.00
13695;BME280;6919;52.344;14.518;2023-01-26T04:42:42;101333.59;;;0.37;100.00
13695;BME280;6919;52.344;14.518;2023-01-26T04:45:11;101336.91;;;0.23;100.00
13695;BME280;6919;52.344;14.518;2023-01-26T04:47:39;101330.41;;;0.30;100.00
13695;BME280;6919;52.344;14.518;2023-01-26T04:50:09;101331.22;;;0.49;100.00
13695;BME280;6919;52.344;14.518;2023-01-26T04:52:39;101323.91;;;0.56;100.00
13695;BME280;6919;52.344;14.518;2023-01-26T04:55:08;101329.25;;;0.54;100.00
13695;BME280;6919;52.344;14.518;2023-01-26T04:57:36;101323.78;;;0.40;100.00
13695;BME280;6919;52.344;14.518;2023-01-26T05:00:07;101318.56;;;0.39;100.00
13695;BME280;6919;52.344;14.518;2023-01-26T05:02:37;101315.13;;;0.37;100.00
13695;BME280;6919;52.344;14.518;2023-01-26T05:05:07;101320.50;;;0.71;100.00
13695;BME280;6919;52.344;14.518;2023-01-26T05:07:35;101315.84;;;0.59;100.00
13695;BME280;6919;52.344;14.518;2023-01-26T05:10:06;101313.34;;;0.56;100.00
13695;BME280;6919;52.344;14.518;2023-01-26T05:12:34;101316.34;;;0.48;100.00
13695;BME280;6919;52.344;14.518;2023-01-26T05:15:05;101312.75;;;0.32;100.00
13695;BME280;6919;52.344;14.518;2023-01-26T05:17:33;101313.44;;;0.36;100.00
13695;BME280;6919;52.344;14.518;2023-01-26T05:20:03;101305.44;;;0.56;100.00
13695;BME280;6919;52.344;14.518;2023-01-26T05:22:31;101306.28;;;0.56;100.00
13695;BME280;6919;52.344;14.518;2023-01-26T05:24:59;101312.28;;;0.41;100.00
13695;BME280;6919;52.344;14.518;2023-01-26T05:27:29;101311.28;;;0.44;100.00
13695;BME280;6919;52.344;14.518;2023-01-26T05:29:57;101314.63;;;0.66;100.00
13695;BME280;6919;52.344;14.518;2023-01-26T05:32:27;101310.19;;;0.66;100.00
13695;BME280;6919;52.344;14.518;2023-01-26T05:34:55;101316.94;;;0.72;100.00
13695;BME280;6919;52.344;14.518;2023-01-26T05:37:25;101310.50;;;0.77;100.00
13695;BME280;6919;52.344;14.518;2023-01-26T05:39:54;101311.19;;;0.64;100.00
13695;BME280;6919;52.344;14.518;2023-01-26T05:42:23;101309.88;;;0.72;100.00
13695;BME280;6919;52.344;14.518;2023-01-26T05:44:53;101303.56;;;0.58;100.00
13695;BME280;6919;52.344;14.518;2023-01-26T05:47:21;101305.97;;;0.62;100.00
13695;BME280;6919;52.344;14.518;2023-01-26T05:49:50;101307.47;;;0.68;100.00
13695;BME280;6919;52.344;14.518;2023-01-26T05:52:20;101300.16;;;0.56;100.00
13695;BME280;6919;52.344;14.518;2023-01-26T05:54:48;101297.66;;;0.53;100.00
13695;BME280;6919;52.344;14.518;2023-01-26T05:57:16;101310.19;;;0.31;100.00
13695;BME280;6919;52.344;14.518;2023-01-26T05:59:45;101299.69;;;0.29;100.00
13695;BME280;6919;52.344;14.518;2023-01-26T06:02:14;101303.75;;;0.36;100.00
13695;BME280;6919;52.344;14.518;2023-01-26T06:04:43;101301.38;;;0.49;100.00
13695;BME280;6919;52.344;14.518;2023-01-26T06:07:11;101303.75;;;0.36;100.00
13695;BME280;6919;52.344;14.518;2023-01-26T06:09:40;101306.59;;;0.50;100.00
13695;BME280;6919;52.344;14.518;2023-01-26T06:12:14;101308.97;;;0.55;100.00
13695;BME280;6919;52.344;14.518;2023-01-26T06:14:43;101303.56;;;0.58;100.00
13695;BME280;6919;52.344;14.518;2023-01-26T06:17:16;101306.91;;;0.61;100.00
13695;BME280;6919;52.344;14.518;2023-01-26T06:19:45;101299.84;;;0.62;100.00
13695;BME280;6919;52.344;14.518;2023-01-26T06:22:14;101302.72;;;0.74;100.00
13695;BME280;6919;52.344;14.518;2023-01-26T06:24:42;101306.53;;;0.69;100.00
13695;BME280;6919;52.344;14.518;2023-01-26T06:27:13;101307.09;;;0.75;100.00
13695;BME280;6919;52.344;14.518;2023-01-26T06:29:42;101316.78;;;0.75;100.00
13695;BME280;6919;52.344;14.518;2023-01-26T06:32:12;101314.50;;;0.67;100.00
13695;BME280;6919;52.344;14.518;2023-01-26T06:34:42;101318.56;;;0.74;100.00
13695;BME280;6919;52.344;14.518;2023-01-26T06:37:10;101320.16;;;0.78;100.00
13695;BME280;6919;52.344;14.518;2023-01-26T06:39:40;101319.56;;;0.72;100.00
13695;BME280;6919;52.344;14.518;2023-01-26T06:42:08;101325.78;;;0.71;100.00
13695;BME280;6919;52.344;14.518;2023-01-26T06:44:36;101323.63;;;0.79;100.00
13695;BME280;6919;52.344;14.518;2023-01-26T06:47:05;101329.63;;;0.82;100.00
13695;BME280;6919;52.344;14.518;2023-01-26T06:49:34;101328.88;;;0.97;100.00
13695;BME280;6919;52.344;14.518;2023-01-26T06:52:25;101331.78;;;0.91;100.00
13695;BME280;6919;52.344;14.518;2023-01-26T06:54:57;101333.69;;;0.89;100.00
13695;BME280;6919;52.344;14.518;2023-01-26T06:57:26;101331.94;;;0.88;100.00
13695;BME280;6919;52.344;14.518;2023-01-26T06:59:55;101325.97;;;0.85;100.00
13695;BME280;6919;52.344;14.518;2023-01-26T07:02:23;101326.84;;;0.85;100.00
13695;BME280;6919;52.344;14.518;2023-01-26T07:04:52;101320.47;;;0.89;100.00
13695;BME280;6919;52.344;14.518;2023-01-26T07:07:22;101319.97;;;0.81;100.00
13695;BME280;6919;52.344;14.518;2023-01-26T07:09:50;101324.84;;;0.72;100.00
13695;BME280;6919;52.344;14.518;2023-01-26T07:12:19;101331.75;;;0.74;100.00
13695;BME280;6919;52.344;14.518;2023-01-26T07:14:47;101324.88;;;0.89;100.00
13695;BME280;6919;52.344;14.518;2023-01-26T07:17:17;101331.09;;;0.88;100.00
13695;BME280;6919;52.344;14.518;2023-01-26T07:19:45;101334.03;;;0.82;100.00
13695;BME280;6919;52.344;14.518;2023-01-26T07:22:13;101333.53;;;0.92;100.00
13695;BME280;6919;52.344;14.518;2023-01-26T07:24:43;101325.38;;;0.80;100.00
13695;BME280;6919;52.344;14.518;2023-01-26T07:27:11;101319.34;;;0.76;100.00
13695;BME280;6919;52.344;14.518;2023-01-26T07:29:39;101320.91;;;0.80;100.00
13695;BME280;6919;52.344;14.518;2023-01-26T07:32:08;101317.50;;;0.78;100.00
13695;BME280;6919;52.344;14.518;2023-01-26T07:34:36;101322.31;;;0.87;100.00
13695;BME280;6919;52.344;14.518;2023-01-26T07:37:04;101314.81;;;1.14;100.00
13695;BME280;6919;52.344;14.518;2023-01-26T07:39:32;101313.88;;;0.98;100.00
13695;BME280;6919;52.344;14.518;2023-01-26T07:42:02;101314.34;;;1.06;100.00
13695;BME280;6919;52.344;14.518;2023-01-26T07:44:31;101317.28;;;1.00;100.00
13695;BME280;6919;52.344;14.518;2023-01-26T07:46:59;101321.09;;;1.11;100.00
13695;BME280;6919;52.344;14.518;2023-01-26T07:49:27;101316.28;;;1.02;100.00
13695;BME280;6919;52.344;14.518;2023-01-26T07:51:55;101311.06;;;1.01;100.00
13695;BME280;6919;52.344;14.518;2023-01-26T07:54:24;101310.91;;;1.04;100.00
13695;BME280;6919;52.344;14.518;2023-01-26T07:56:52;101313.25;;;1.10;100.00
13695;BME280;6919;52.344;14.518;2023-01-26T07:59:23;101314.56;;;1.01;100.00
13695;BME280;6919;52.344;14.518;2023-01-26T08:01:51;101312.88;;;1.00;100.00
13695;BME280;6919;52.344;14.518;2023-01-26T08:04:19;101300.84;;;1.12;100.00
13695;BME280;6919;52.344;14.518;2023-01-26T08:06:50;101298.72;;;1.01;100.00
13695;BME280;6919;52.344;14.518;2023-01-26T08:09:19;101314.44;;;1.04;100.00
13695;BME280;6919;52.344;14.518;2023-01-26T08:11:47;101313.34;;;1.08;100.00
13695;BME280;6919;52.344;14.518;2023-01-26T08:14:15;101318.78;;;1.22;100.00
13695;BME280;6919;52.344;14.518;2023-01-26T08:16:45;101323.91;;;1.08;100.00
13695;BME280;6919;52.344;14.518;2023-01-26T08:19:13;101323.38;;;1.19;100.00
13695;BME280;6919;52.344;14.518;2023-01-26T08:21:42;101317.31;;;1.17;100.00
13695;BME280;6919;52.344;14.518;2023-01-26T08:24:11;101309.38;;;1.17;100.00
13695;BME280;6919;52.344;14.518;2023-01-26T08:26:39;101320.06;;;0.97;100.00
13695;BME280;6919;52.344;14.518;2023-01-26T08:29:08;101314.94;;;0.94;100.00
13695;BME280;6919;52.344;14.518;2023-01-26T08:31:37;101317.69;;;0.92;100.00
13695;BME280;6919;52.344;14.518;2023-01-26T08:34:06;101315.59;;;0.99;100.00
13695;BME280;6919;52.344;14.518;2023-01-26T08:36:35;101323.50;;;0.99;100.00
13695;BME280;6919;52.344;14.518;2023-01-26T08:39:03;101321.47;;;1.04;100.00
13695;BME280;6919;52.344;14.518;2023-01-26T08:41:31;101325.28;;;0.98;100.00
13695;BME280;6919;52.344;14.518;2023-01-26T08:44:00;101317.75;;;1.08;100.00
13695;BME280;6919;52.344;14.518;2023-01-26T08:46:28;101318.53;;;1.10;100.00
13695;BME280;6919;52.344;14.518;2023-01-26T08:48:56;101315.28;;;1.05;100.00
13695;BME280;6919;52.344;14.518;2023-01-26T08:51:28;101307.13;;;1.09;100.00
13695;BME280;6919;52.344;14.518;2023-01-26T08:53:56;101320.81;;;1.17;100.00
13695;BME280;6919;52.344;14.518;2023-01-26T08:56:24;101330.28;;;1.21;100.00
13695;BME280;6919;52.344;14.518;2023-01-26T08:58:52;101332.44;;;1.30;100.00
13695;BME280;6919;52.344;14.518;2023-01-26T09:01:20;101331.91;;;1.24;100.00
13695;BME280;6919;52.344;14.518;2023-01-26T09:03:49;101336.47;;;1.20;100.00
13695;BME280;6919;52.344;14.518;2023-01-26T09:06:19;101338.28;;;1.20;100.00
13695;BME280;6919;52.344;14.518;2023-01-26T09:08:48;101343.88;;;1.31;100.00
13695;BME280;6919;52.344;14.518;2023-01-26T09:11:16;101332.38;;;1.32;100.00
13695;BME280;6919;52.344;14.518;2023-01-26T09:13:49;101327.88;;;1.34;100.00
13695;BME280;6919;52.344;14.518;2023-01-26T09:16:23;101327.38;;;1.43;100.00
13695;BME280;6919;52.344;14.518;2023-01-26T09:18:52;101340.56;;;1.77;100.00
13695;BME280;6919;52.344;14.518;2023-01-26T09:21:21;101337.47;;;1.69;100.00
13695;BME280;6919;52.344;14.518;2023-01-26T09:23:52;101333.06;;;1.85;100.00
13695;BME280;6919;52.344;14.518;2023-01-26T09:26:23;101341.00;;;1.85;100.00
13695;BME280;6919;52.344;14.518;2023-01-26T09:28:51;101339.22;;;1.85;100.00
13695;BME280;6919;52.344;14.518;2023-01-26T09:31:20;101339.47;;;1.81;100.00
13695;BME280;6919;52.344;14.518;2023-01-26T09:33:48;101342.25;;;1.78;100.00
13695;BME280;6919;52.344;14.518;2023-01-26T09:36:17;101341.38;;;1.62;100.00
13695;BME280;6919;52.344;14.518;2023-01-26T09:38:46;101341.34;;;1.79;100.00
13695;BME280;6919;52.344;14.518;2023-01-26T09:41:36;101336.16;;;1.60;100.00
13695;BME280;6919;52.344;14.518;2023-01-26T09:44:16;101336.31;;;1.57;100.00
13695;BME280;6919;52.344;14.518;2023-01-26T09:47:01;101329.19;;;1.59;100.00
13695;BME280;6919;52.344;14.518;2023-01-26T09:49:46;101331.91;;;1.58;100.00
13695;BME280;6919;52.344;14.518;2023-01-26T09:52:25;101326.91;;;1.52;100.00
13695;BME280;6919;52.344;14.518;2023-01-26T09:54:59;101317.16;;;1.37;100.00
13695;BME280;6919;52.344;14.518;2023-01-26T09:57:46;101318.34;;;1.47;100.00
13695;BME280;6919;52.344;14.518;2023-01-26T10:00:21;101317.00;;;1.40;100.00
13695;BME280;6919;52.344;14.518;2023-01-26T10:03:04;101309.44;;;1.15;100.00
13695;BME280;6919;52.344;14.518;2023-01-26T10:05:43;101307.75;;;1.14;100.00
13695;BME280;6919;52.344;14.518;2023-01-26T10:08:16;101307.19;;;1.25;100.00
13695;BME280;6919;52.344;14.518;2023-01-26T10:10:49;101309.75;;;1.43;100.00
13695;BME280;6919;52.344;14.518;2023-01-26T10:13:22;101313.41;;;1.24;100.00
13695;BME280;6919;52.344;14.518;2023-01-26T10:15:55;101309.75;;;1.26;100.00
13695;BME280;6919;52.344;14.518;2023-01-26T10:18:31;101310.06;;;1.20;100.00
13695;BME280;6919;52.344;14.518;2023-01-26T10:21:04;101310.47;;;1.30;100.00
13695;BME280;6919;52.344;14.518;2023-01-26T10:23:35;101310.31;;;1.33;100.00
13695;BME280;6919;52.344;14.518;2023-01-26T10:26:12;101303.59;;;1.43;100.00
13695;BME280;6919;52.344;14.518;2023-01-26T10:28:44;101303.31;;;1.32;100.00
13695;BME280;6919;52.344;14.518;2023-01-26T10:31:16;101305.13;;;1.31;100.00
13695;BME280;6919;52.344;14.518;2023-01-26T10:33:51;101308.50;;;1.33;100.00
13695;BME280;6919;52.344;14.518;2023-01-26T10:36:21;101317.91;;;1.39;100.00
13695;BME280;6919;52.344;14.518;2023-01-26T10:38:51;101313.13;;;1.30;100.00
13695;BME280;6919;52.344;14.518;2023-01-26T10:41:26;101300.19;;;1.58;100.00
13695;BME280;6919;52.344;14.518;2023-01-26T10:43:57;101299.84;;;1.64;100.00
13695;BME280;6919;52.344;14.518;2023-01-26T10:46:31;101303.53;;;1.44;100.00
13695;BME280;6919;52.344;14.518;2023-01-26T10:49:13;101294.28;;;1.36;100.00
13695;BME280;6919;52.344;14.518;2023-01-26T10:51:44;101285.75;;;1.31;100.00
13695;BME280;6919;52.344;14.518;2023-01-26T10:54:18;101283.91;;;1.33;100.00
13695;BME280;6919;52.344;14.518;2023-01-26T10:56:51;101288.31;;;1.32;100.00
13695;BME280;6919;52.344;14.518;2023-01-26T10:59:31;101287.31;;;1.35;100.00
13695;BME280;6919;52.344;14.518;2023-01-26T11:02:19;101287.44;;;1.49;100.00
13695;BME280;6919;52.344;14.518;2023-01-26T11:05:17;101276.56;;;1.38;100.00
13695;BME280;6919;52.344;14.518;2023-01-26T11:07:48;101276.06;;;1.31;100.00
13695;BME280;6919;52.344;14.518;2023-01-26T11:10:28;101278.84;;;1.28;100.00
13695;BME280;6919;52.344;14.518;2023-01-26T11:13:13;101270.38;;;1.22;100.00
13695;BME280;6919;52.344;14.518;2023-01-26T11:15:48;101268.81;;;1.35;100.00
13695;BME280;6919;52.344;14.518;2023-01-26T11:18:29;101271.00;;;1.27;100.00
13695;BME280;6919;52.344;14.518;2023-01-26T11:21:05;101260.00;;;1.34;100.00
13695;BME280;6919;52.344;14.518;2023-01-26T11:23:51;101251.63;;;1.43;100.00
13695;BME280;6919;52.344;14.518;2023-01-26T11:26:56;101258.75;;;1.26;100.00
13695;BME280;6919;52.344;14.518;2023-01-26T11:30:12;101252.66;;;1.24;100.00
13695;BME280;6919;52.344;14.518;2023-01-26T11:32:55;101256.31;;;1.21;100.00
13695;BME280;6919;52.344;14.518;2023-01-26T11:35:38;101252.81;;;1.21;100.00
13695;BME280;6919;52.344;14.518;2023-01-26T11:38:28;101249.25;;;1.22;100.00
13695;BME280;6919;52.344;14.518;2023-01-26T11:41:15;101245.53;;;1.26;100.00
13695;BME280;6919;52.344;14.518;2023-01-26T11:44:28;101239.22;;;1.28;100.00
13695;BME280;6919;52.344;14.518;2023-01-26T11:47:19;101240.25;;;1.26;100.00
13695;BME280;6919;52.344;14.518;2023-01-26T11:50:05;101238.81;;;1.36;100.00
13695;BME280;6919;52.344;14.518;2023-01-26T11:52:52;101235.19;;;1.38;100.00
13695;BME280;6919;52.344;14.518;2023-01-26T11:55:36;101243.03;;;1.40;100.00
13695;BME280;6919;52.344;14.518;2023-01-26T11:58:23;101229.84;;;1.23;100.00
13695;BME280;6919;52.344;14.518;2023-01-26T12:00:57;101221.28;;;1.18;100.00
13695;BME280;6919;52.344;14.518;2023-01-26T12:03:34;101218.72;;;1.16;100.00
13695;BME280;6919;52.344;14.518;2023-01-26T12:06:16;101212.00;;;1.43;100.00
13695;BME280;6919;52.344;14.518;2023-01-26T12:08:52;101219.78;;;1.29;100.00
13695;BME280;6919;52.344;14.518;2023-01-26T12:11:28;101218.63;;;1.35;100.00
13695;BME280;6919;52.344;14.518;2023-01-26T12:14:15;101214.03;;;1.38;100.00
13695;BME280;6919;52.344;14.518;2023-01-26T12:17:24;101215.91;;;1.36;100.00
13695;BME280;6919;52.344;14.518;2023-01-26T12:20:00;101214.00;;;1.23;100.00
13695;BME280;6919;52.344;14.518;2023-01-26T12:22:36;101198.53;;;1.15;100.00
13695;BME280;6919;52.344;14.518;2023-01-26T12:25:24;101200.63;;;1.26;100.00
13695;BME280;6919;52.344;14.518;2023-01-26T12:28:05;101195.81;;;1.17;100.00
13695;BME280;6919;52.344;14.518;2023-01-26T12:30:48;101191.13;;;1.22;100.00
13695;BME280;6919;52.344;14.518;2023-01-26T12:33:19;101180.75;;;1.34;100.00
13695;BME280;6919;52.344;14.518;2023-01-26T12:36:38;101191.72;;;1.11;100.00
13695;BME280;6919;52.344;14.518;2023-01-26T12:39:24;101196.09;;;1.28;100.00
13695;BME280;6919;52.344;14.518;2023-01-26T12:42:19;101189.56;;;1.35;100.00
13695;BME280;6919;52.344;14.518;2023-01-26T12:44:55;101186.03;;;1.19;100.00
13695;BME280;6919;52.344;14.518;2023-01-26T12:47:31;101170.00;;;1.06;100.00
13695;BME280;6919;52.344;14.518;2023-01-26T12:50:07;101178.91;;;1.04;100.00
13695;BME280;6919;52.344;14.518;2023-01-26T12:52:46;101184.72;;;1.10;100.00
13695;BME280;6919;52.344;14.518;2023-01-26T12:55:22;101177.94;;;1.22;100.00
13695;BME280;6919;52.344;14.518;2023-01-26T12:57:57;101176.47;;;1.16;100.00
13695;BME280;6919;52.344;14.518;2023-01-26T13:00:30;101167.44;;;1.05;100.00
13695;BME280;6919;52.344;14.518;2023-01-26T13:03:03;101159.63;;;1.19;100.00
13695;BME280;6919;52.344;14.518;2023-01-26T13:05:35;101159.34;;;1.23;100.00
13695;BME280;6919;52.344;14.518;2023-01-26T13:11:46;101156.03;;;1.20;100.00
13695;BME280;6919;52.344;14.518;2023-01-26T13:14:31;101163.19;;;1.18;100.00
13695;BME280;6919;52.344;14.518;2023-01-26T13:17:45;101165.78;;;1.35;100.00
13695;BME280;6919;52.344;14.518;2023-01-26T13:20:47;101165.50;;;1.24;100.00
13695;BME280;6919;52.344;14.518;2023-01-26T13:23:49;101166.25;;;1.10;100.00
13695;BME280;6919;52.344;14.518;2023-01-26T13:26:45;101177.19;;;1.20;100.00